sensor_id;sensor_type;location;lat;lon;timestamp;P1;durP1;ratioP1;P2;durP2;ratioP2
26319;SDS011;14024;52.226;5.200;2023-07-28T00:01:28;20.08;;;8.35;;
26319;SDS011;14024;52.226;5.200;2023-07-28T00:03:54;19.27;;;8.18;;
26319;SDS011;14024;52.226;5.200;2023-07-28T00:06:20;15.25;;;7.55;;
26319;SDS011;14024;52.226;5.200;2023-07-28T00:08:46;22.95;;;8.63;;
26319;SDS011;14024;52.226;5.200;2023-07-28T00:11:13;23.35;;;7.50;;
26319;SDS011;14024;52.226;5.200;2023-07-28T00:13:39;24.83;;;9.32;;
26319;SDS011;14024;52.226;5.200;2023-07-28T00:16:06;23.67;;;8.95;;
26319;SDS011;14024;52.226;5.200;2023-07-28T00:18:32;28.52;;;10.40;;
26319;SDS011;14024;52.226;5.200;2023-07-28T00:20:58;23.05;;;11.15;;
26319;SDS011;14024;52.226;5.200;2023-07-28T00:23:24;31.90;;;12.82;;
26319;SDS011;14024;52.226;5.200;2023-07-28T00:25:50;29.20;;;11.30;;
26319;SDS011;14024;52.226;5.200;2023-07-28T00:28:16;33.60;;;11.20;;
26319;SDS011;14024;52.226;5.200;2023-07-28T00:30:42;33.80;;;12.50;;
26319;SDS011;14024;52.226;5.200;2023-07-28T00:33:08;25.73;;;11.73;;
26319;SDS011;14024;52.226;5.200;2023-07-28T00:35:34;30.40;;;11.85;;
26319;SDS011;14024;52.226;5.200;2023-07-28T00:38:01;28.25;;;12.60;;
26319;SDS011;14024;52.226;5.200;2023-07-28T00:40:27;25.67;;;12.00;;
26319;SDS011;14024;52.226;5.200;2023-07-28T00:42:53;32.65;;;12.52;;
26319;SDS011;14024;52.226;5.200;2023-07-28T00:45:19;25.67;;;12.65;;
26319;SDS011;14024;52.226;5.200;2023-07-28T00:47:46;26.42;;;12.15;;
26319;SDS011;14024;52.226;5.200;2023-07-28T00:50:12;28.40;;;12.30;;
26319;SDS011;14024;52.226;5.200;2023-07-28T00:52:38;26.10;;;12.23;;
26319;SDS011;14024;52.226;5.200;2023-07-28T00:55:05;33.42;;;13.55;;
26319;SDS011;14024;52.226;5.200;2023-07-28T00:57:32;36.85;;;14.88;;
26319;SDS011;14024;52.226;5.200;2023-07-28T00:59:58;39.17;;;14.77;;
26319;SDS011;14024;52.226;5.200;2023-07-28T01:02:24;27.77;;;14.30;;
26319;SDS011;14024;52.226;5.200;2023-07-28T01:04:51;37.85;;;14.95;;
26319;SDS011;14024;52.226;5.200;2023-07-28T01:07:24;38.42;;;15.95;;
26319;SDS011;14024;52.226;5.200;2023-07-28T01:09:53;36.10;;;16.20;;
26319;SDS011;14024;52.226;5.200;2023-07-28T01:12:23;42.00;;;16.55;;
26319;SDS011;14024;52.226;5.200;2023-07-28T01:14:49;46.75;;;16.98;;
26319;SDS011;14024;52.226;5.200;2023-07-28T01:17:15;46.97;;;18.23;;
26319;SDS011;14024;52.226;5.200;2023-07-28T01:19:41;44.17;;;16.98;;
26319;SDS011;14024;52.226;5.200;2023-07-28T01:27:18;44.92;;;16.83;;
26319;SDS011;14024;52.226;5.200;2023-07-28T01:29:44;56.03;;;19.15;;
26319;SDS011;14024;52.226;5.200;2023-07-28T01:32:11;44.10;;;18.17;;
26319;SDS011;14024;52.226;5.200;2023-07-28T01:34:37;45.67;;;17.88;;
26319;SDS011;14024;52.226;5.200;2023-07-28T01:37:03;52.53;;;19.55;;
26319;SDS011;14024;52.226;5.200;2023-07-28T01:39:29;45.33;;;17.92;;
26319;SDS011;14024;52.226;5.200;2023-07-28T01:41:55;48.03;;;17.55;;
26319;SDS011;14024;52.226;5.200;2023-07-28T01:44:21;42.78;;;16.60;;
26319;SDS011;14024;52.226;5.200;2023-07-28T01:46:47;44.53;;;16.27;;
26319;SDS011;14024;52.226;5.200;2023-07-28T01:49:13;41.53;;;16.70;;
26319;SDS011;14024;52.226;5.200;2023-07-28T01:51:39;49.95;;;17.75;;
26319;SDS011;14024;52.226;5.200;2023-07-28T01:54:05;39.25;;;16.40;;
26319;SDS011;14024;52.226;5.200;2023-07-28T01:56:31;39.22;;;17.02;;
26319;SDS011;14024;52.226;5.200;2023-07-28T01:58:57;36.83;;;16.15;;
26319;SDS011;14024;52.226;5.200;2023-07-28T02:01:23;36.33;;;14.95;;
26319;SDS011;14024;52.226;5.200;2023-07-28T02:03:49;33.00;;;15.70;;
26319;SDS011;14024;52.226;5.200;2023-07-28T02:06:15;38.25;;;15.95;;
26319;SDS011;14024;52.226;5.200;2023-07-28T02:08:41;43.22;;;17.05;;
26319;SDS011;14024;52.226;5.200;2023-07-28T02:11:07;38.97;;;16.98;;
26319;SDS011;14024;52.226;5.200;2023-07-28T02:13:33;38.08;;;15.40;;
26319;SDS011;14024;52.226;5.200;2023-07-28T02:15:59;38.35;;;16.92;;
26319;SDS011;14024;52.226;5.200;2023-07-28T02:18:25;38.70;;;16.42;;
26319;SDS011;14024;52.226;5.200;2023-07-28T02:20:51;44.03;;;17.42;;
26319;SDS011;14024;52.226;5.200;2023-07-28T02:23:17;45.63;;;17.17;;
26319;SDS011;14024;52.226;5.200;2023-07-28T02:25:43;49.00;;;18.17;;
26319;SDS011;14024;52.226;5.200;2023-07-28T02:28:10;41.03;;;16.08;;
26319;SDS011;14024;52.226;5.200;2023-07-28T02:30:36;50.67;;;16.35;;
26319;SDS011;14024;52.226;5.200;2023-07-28T02:33:03;44.20;;;16.50;;
26319;SDS011;14024;52.226;5.200;2023-07-28T02:35:29;35.22;;;15.15;;
26319;SDS011;14024;52.226;5.200;2023-07-28T02:37:57;36.90;;;15.60;;
26319;SDS011;14024;52.226;5.200;2023-07-28T02:40:23;53.88;;;15.07;;
26319;SDS011;14024;52.226;5.200;2023-07-28T02:42:49;39.13;;;15.43;;
26319;SDS011;14024;52.226;5.200;2023-07-28T02:45:15;37.70;;;15.07;;
26319;SDS011;14024;52.226;5.200;2023-07-28T02:47:41;42.58;;;14.85;;
26319;SDS011;14024;52.226;5.200;2023-07-28T02:50:07;34.25;;;15.32;;
26319;SDS011;14024;52.226;5.200;2023-07-28T02:52:33;43.13;;;15.23;;
26319;SDS011;14024;52.226;5.200;2023-07-28T02:54:59;34.95;;;15.13;;
26319;SDS011;14024;52.226;5.200;2023-07-28T02:57:25;37.83;;;15.65;;
26319;SDS011;14024;52.226;5.200;2023-07-28T02:59:51;39.13;;;15.05;;
26319;SDS011;14024;52.226;5.200;2023-07-28T03:02:18;39.63;;;14.57;;
26319;SDS011;14024;52.226;5.200;2023-07-28T03:04:44;42.42;;;15.98;;
26319;SDS011;14024;52.226;5.200;2023-07-28T03:07:10;38.63;;;14.77;;
26319;SDS011;14024;52.226;5.200;2023-07-28T03:09:36;38.72;;;16.08;;
26319;SDS011;14024;52.226;5.200;2023-07-28T03:12:02;40.90;;;15.07;;
26319;SDS011;14024;52.226;5.200;2023-07-28T03:14:30;41.03;;;15.52;;
26319;SDS011;14024;52.226;5.200;2023-07-28T03:16:57;38.28;;;14.70;;
26319;SDS011;14024;52.226;5.200;2023-07-28T03:19:23;42.85;;;14.15;;
26319;SDS011;14024;52.226;5.200;2023-07-28T03:21:49;42.90;;;14.20;;
26319;SDS011;14024;52.226;5.200;2023-07-28T03:24:15;50.47;;;14.75;;
26319;SDS011;14024;52.226;5.200;2023-07-28T03:26:41;36.97;;;15.20;;
26319;SDS011;14024;52.226;5.200;2023-07-28T03:29:07;36.88;;;14.38;;
26319;SDS011;14024;52.226;5.200;2023-07-28T03:31:33;37.15;;;15.80;;
26319;SDS011;14024;52.226;5.200;2023-07-28T03:34:01;37.25;;;14.57;;
26319;SDS011;14024;52.226;5.200;2023-07-28T03:36:27;39.97;;;14.98;;
26319;SDS011;14024;52.226;5.200;2023-07-28T03:38:53;41.08;;;15.00;;
26319;SDS011;14024;52.226;5.200;2023-07-28T03:41:19;41.85;;;14.73;;
26319;SDS011;14024;52.226;5.200;2023-07-28T03:43:45;43.03;;;14.05;;
26319;SDS011;14024;52.226;5.200;2023-07-28T03:46:12;31.80;;;15.02;;
26319;SDS011;14024;52.226;5.200;2023-07-28T03:48:38;33.30;;;14.43;;
26319;SDS011;14024;52.226;5.200;2023-07-28T03:51:04;43.78;;;16.27;;
26319;SDS011;14024;52.226;5.200;2023-07-28T03:53:30;34.13;;;14.60;;
26319;SDS011;14024;52.226;5.200;2023-07-28T03:55:56;36.97;;;15.75;;
26319;SDS011;14024;52.226;5.200;2023-07-28T03:58:26;46.47;;;15.27;;
26319;SDS011;14024;52.226;5.200;2023-07-28T04:00:52;38.50;;;16.08;;
26319;SDS011;14024;52.226;5.200;2023-07-28T04:03:19;39.70;;;16.63;;
26319;SDS011;14024;52.226;5.200;2023-07-28T04:05:45;49.72;;;17.00;;
26319;SDS011;14024;52.226;5.200;2023-07-28T04:08:11;40.10;;;14.68;;
26319;SDS011;14024;52.226;5.200;2023-07-28T04:10:37;45.83;;;15.95;;
26319;SDS011;14024;52.226;5.200;2023-07-28T04:13:03;35.67;;;15.07;;
26319;SDS011;14024;52.226;5.200;2023-07-28T04:15:28;45.92;;;16.20;;
26319;SDS011;14024;52.226;5.200;2023-07-28T04:17:54;45.45;;;16.00;;
26319;SDS011;14024;52.226;5.200;2023-07-28T04:20:20;44.90;;;16.98;;
26319;SDS011;14024;52.226;5.200;2023-07-28T04:22:46;33.13;;;16.40;;
26319;SDS011;14024;52.226;5.200;2023-07-28T04:25:12;52.58;;;17.52;;
26319;SDS011;14024;52.226;5.200;2023-07-28T04:27:39;44.13;;;18.05;;
26319;SDS011;14024;52.226;5.200;2023-07-28T04:30:06;59.78;;;18.23;;
26319;SDS011;14024;52.226;5.200;2023-07-28T04:32:32;45.33;;;17.00;;
26319;SDS011;14024;52.226;5.200;2023-07-28T04:34:58;41.65;;;17.90;;
26319;SDS011;14024;52.226;5.200;2023-07-28T04:37:24;41.45;;;17.30;;
26319;SDS011;14024;52.226;5.200;2023-07-28T04:39:50;45.83;;;17.90;;
26319;SDS011;14024;52.226;5.200;2023-07-28T04:42:16;46.50;;;17.85;;
26319;SDS011;14024;52.226;5.200;2023-07-28T04:44:42;48.33;;;19.58;;
26319;SDS011;14024;52.226;5.200;2023-07-28T04:47:09;49.03;;;17.77;;
26319;SDS011;14024;52.226;5.200;2023-07-28T04:49:35;48.35;;;17.08;;
26319;SDS011;14024;52.226;5.200;2023-07-28T04:52:01;52.55;;;17.55;;
26319;SDS011;14024;52.226;5.200;2023-07-28T04:54:27;42.65;;;17.08;;
26319;SDS011;14024;52.226;5.200;2023-07-28T04:56:53;58.15;;;18.13;;
26319;SDS011;14024;52.226;5.200;2023-07-28T04:59:19;58.00;;;19.70;;
26319;SDS011;14024;52.226;5.200;2023-07-28T05:01:45;49.22;;;18.83;;
26319;SDS011;14024;52.226;5.200;2023-07-28T05:04:11;53.58;;;19.55;;
26319;SDS011;14024;52.226;5.200;2023-07-28T05:06:37;54.97;;;19.35;;
26319;SDS011;14024;52.226;5.200;2023-07-28T05:09:03;67.45;;;22.25;;
26319;SDS011;14024;52.226;5.200;2023-07-28T05:11:29;56.53;;;19.15;;
26319;SDS011;14024;52.226;5.200;2023-07-28T05:13:55;68.68;;;21.00;;
26319;SDS011;14024;52.226;5.200;2023-07-28T05:16:21;59.03;;;20.08;;
26319;SDS011;14024;52.226;5.200;2023-07-28T05:18:47;54.35;;;19.20;;
26319;SDS011;14024;52.226;5.200;2023-07-28T05:21:13;52.67;;;18.70;;
26319;SDS011;14024;52.226;5.200;2023-07-28T05:23:39;60.22;;;20.23;;
26319;SDS011;14024;52.226;5.200;2023-07-28T05:26:05;54.60;;;21.27;;
26319;SDS011;14024;52.226;5.200;2023-07-28T05:28:33;56.58;;;19.38;;
26319;SDS011;14024;52.226;5.200;2023-07-28T05:31:04;53.45;;;20.45;;
26319;SDS011;14024;52.226;5.200;2023-07-28T05:33:30;55.78;;;18.67;;
26319;SDS011;14024;52.226;5.200;2023-07-28T05:36:03;49.05;;;18.67;;
26319;SDS011;14024;52.226;5.200;2023-07-28T05:38:29;53.38;;;20.20;;
26319;SDS011;14024;52.226;5.200;2023-07-28T05:40:56;42.90;;;19.75;;
26319;SDS011;14024;52.226;5.200;2023-07-28T05:43:23;47.15;;;18.85;;
26319;SDS011;14024;52.226;5.200;2023-07-28T05:45:49;49.00;;;19.42;;
26319;SDS011;14024;52.226;5.200;2023-07-28T05:48:15;49.50;;;20.13;;
26319;SDS011;14024;52.226;5.200;2023-07-28T05:50:41;48.33;;;19.88;;
26319;SDS011;14024;52.226;5.200;2023-07-28T05:53:07;53.75;;;19.40;;
26319;SDS011;14024;52.226;5.200;2023-07-28T05:55:33;50.90;;;19.23;;
26319;SDS011;14024;52.226;5.200;2023-07-28T05:57:59;53.97;;;19.08;;
26319;SDS011;14024;52.226;5.200;2023-07-28T06:00:25;51.08;;;20.45;;
26319;SDS011;14024;52.226;5.200;2023-07-28T06:02:52;51.20;;;19.73;;
26319;SDS011;14024;52.226;5.200;2023-07-28T06:05:18;42.67;;;19.60;;
26319;SDS011;14024;52.226;5.200;2023-07-28T06:07:44;50.40;;;18.95;;
26319;SDS011;14024;52.226;5.200;2023-07-28T06:10:10;59.50;;;20.20;;
26319;SDS011;14024;52.226;5.200;2023-07-28T06:12:36;50.05;;;19.58;;
26319;SDS011;14024;52.226;5.200;2023-07-28T06:15:02;54.90;;;19.38;;
26319;SDS011;14024;52.226;5.200;2023-07-28T06:17:28;43.55;;;20.10;;
26319;SDS011;14024;52.226;5.200;2023-07-28T06:19:54;45.95;;;19.83;;
26319;SDS011;14024;52.226;5.200;2023-07-28T06:22:20;43.65;;;19.65;;
26319;SDS011;14024;52.226;5.200;2023-07-28T06:24:46;41.47;;;18.20;;
26319;SDS011;14024;52.226;5.200;2023-07-28T06:27:12;52.13;;;17.92;;
26319;SDS011;14024;52.226;5.200;2023-07-28T06:29:38;49.72;;;19.38;;
26319;SDS011;14024;52.226;5.200;2023-07-28T06:32:05;51.58;;;19.60;;
26319;SDS011;14024;52.226;5.200;2023-07-28T06:34:31;38.22;;;17.80;;
26319;SDS011;14024;52.226;5.200;2023-07-28T06:36:57;45.60;;;17.52;;
26319;SDS011;14024;52.226;5.200;2023-07-28T06:39:23;42.03;;;19.00;;
26319;SDS011;14024;52.226;5.200;2023-07-28T06:41:49;39.90;;;18.98;;
26319;SDS011;14024;52.226;5.200;2023-07-28T06:44:16;41.20;;;18.13;;
26319;SDS011;14024;52.226;5.200;2023-07-28T06:46:42;48.33;;;18.80;;
26319;SDS011;14024;52.226;5.200;2023-07-28T06:49:08;38.17;;;18.60;;
26319;SDS011;14024;52.226;5.200;2023-07-28T06:51:35;40.33;;;18.88;;
26319;SDS011;14024;52.226;5.200;2023-07-28T06:54:00;42.40;;;18.48;;
26319;SDS011;14024;52.226;5.200;2023-07-28T06:56:27;37.53;;;19.33;;
26319;SDS011;14024;52.226;5.200;2023-07-28T06:58:53;48.60;;;19.05;;
26319;SDS011;14024;52.226;5.200;2023-07-28T07:01:19;44.42;;;18.75;;
26319;SDS011;14024;52.226;5.200;2023-07-28T07:03:47;39.72;;;18.23;;
26319;SDS011;14024;52.226;5.200;2023-07-28T07:06:13;35.03;;;19.38;;
26319;SDS011;14024;52.226;5.200;2023-07-28T07:08:38;42.95;;;19.50;;
26319;SDS011;14024;52.226;5.200;2023-07-28T07:11:04;44.72;;;19.77;;
26319;SDS011;14024;52.226;5.200;2023-07-28T07:13:31;45.42;;;19.55;;
26319;SDS011;14024;52.226;5.200;2023-07-28T07:15:57;51.33;;;20.02;;
26319;SDS011;14024;52.226;5.200;2023-07-28T07:18:23;44.90;;;19.60;;
26319;SDS011;14024;52.226;5.200;2023-07-28T07:20:49;46.25;;;19.25;;
26319;SDS011;14024;52.226;5.200;2023-07-28T07:23:15;35.53;;;18.42;;
26319;SDS011;14024;52.226;5.200;2023-07-28T07:25:41;43.42;;;19.48;;
26319;SDS011;14024;52.226;5.200;2023-07-28T07:28:07;42.92;;;18.75;;
26319;SDS011;14024;52.226;5.200;2023-07-28T07:30:33;35.28;;;18.20;;
26319;SDS011;14024;52.226;5.200;2023-07-28T07:32:59;40.42;;;18.13;;
26319;SDS011;14024;52.226;5.200;2023-07-28T07:35:25;38.53;;;18.15;;
26319;SDS011;14024;52.226;5.200;2023-07-28T07:37:51;44.35;;;19.67;;
26319;SDS011;14024;52.226;5.200;2023-07-28T07:40:17;45.30;;;19.70;;
26319;SDS011;14024;52.226;5.200;2023-07-28T07:42:47;37.70;;;18.38;;
26319;SDS011;14024;52.226;5.200;2023-07-28T07:45:13;37.55;;;18.52;;
26319;SDS011;14024;52.226;5.200;2023-07-28T07:47:40;29.67;;;17.40;;
26319;SDS011;14024;52.226;5.200;2023-07-28T07:50:07;32.95;;;18.00;;
26319;SDS011;14024;52.226;5.200;2023-07-28T07:52:36;35.45;;;17.08;;
26319;SDS011;14024;52.226;5.200;2023-07-28T07:55:03;32.10;;;15.85;;
26319;SDS011;14024;52.226;5.200;2023-07-28T07:57:29;30.92;;;16.45;;
26319;SDS011;14024;52.226;5.200;2023-07-28T07:59:57;32.05;;;16.60;;
26319;SDS011;14024;52.226;5.200;2023-07-28T08:02:23;32.38;;;16.52;;
26319;SDS011;14024;52.226;5.200;2023-07-28T08:04:51;29.63;;;15.48;;
26319;SDS011;14024;52.226;5.200;2023-07-28T08:07:18;29.27;;;14.60;;
26319;SDS011;14024;52.226;5.200;2023-07-28T08:09:44;27.58;;;15.43;;
26319;SDS011;14024;52.226;5.200;2023-07-28T08:12:11;30.98;;;14.82;;
26319;SDS011;14024;52.226;5.200;2023-07-28T08:14:37;25.60;;;14.23;;
26319;SDS011;14024;52.226;5.200;2023-07-28T08:17:03;29.05;;;14.43;;
26319;SDS011;14024;52.226;5.200;2023-07-28T08:19:29;21.13;;;12.50;;
26319;SDS011;14024;52.226;5.200;2023-07-28T08:21:55;18.77;;;11.07;;
26319;SDS011;14024;52.226;5.200;2023-07-28T08:24:21;19.63;;;10.05;;
26319;SDS011;14024;52.226;5.200;2023-07-28T08:26:47;14.70;;;9.60;;
26319;SDS011;14024;52.226;5.200;2023-07-28T08:29:14;13.20;;;9.48;;
26319;SDS011;14024;52.226;5.200;2023-07-28T08:31:40;16.98;;;9.77;;
26319;SDS011;14024;52.226;5.200;2023-07-28T08:34:06;13.77;;;9.80;;
26319;SDS011;14024;52.226;5.200;2023-07-28T08:36:33;16.05;;;10.02;;
26319;SDS011;14024;52.226;5.200;2023-07-28T08:38:59;15.27;;;11.05;;
26319;SDS011;14024;52.226;5.200;2023-07-28T08:41:25;15.55;;;10.88;;
26319;SDS011;14024;52.226;5.200;2023-07-28T08:43:52;15.43;;;10.98;;
26319;SDS011;14024;52.226;5.200;2023-07-28T08:46:19;15.80;;;11.25;;
26319;SDS011;14024;52.226;5.200;2023-07-28T08:48:45;17.63;;;11.32;;
26319;SDS011;14024;52.226;5.200;2023-07-28T08:51:12;21.63;;;10.95;;
26319;SDS011;14024;52.226;5.200;2023-07-28T08:53:38;16.55;;;10.80;;
26319;SDS011;14024;52.226;5.200;2023-07-28T08:56:04;17.25;;;12.18;;
26319;SDS011;14024;52.226;5.200;2023-07-28T08:58:30;21.60;;;11.07;;
26319;SDS011;14024;52.226;5.200;2023-07-28T09:00:56;17.33;;;11.73;;
26319;SDS011;14024;52.226;5.200;2023-07-28T09:03:25;17.30;;;12.35;;
26319;SDS011;14024;52.226;5.200;2023-07-28T09:05:52;20.30;;;13.57;;
26319;SDS011;14024;52.226;5.200;2023-07-28T09:08:18;25.15;;;13.80;;
26319;SDS011;14024;52.226;5.200;2023-07-28T09:10:45;21.30;;;14.88;;
26319;SDS011;14024;52.226;5.200;2023-07-28T09:13:12;25.85;;;13.25;;
26319;SDS011;14024;52.226;5.200;2023-07-28T09:15:38;24.33;;;14.50;;
26319;SDS011;14024;52.226;5.200;2023-07-28T09:18:08;24.73;;;14.68;;
26319;SDS011;14024;52.226;5.200;2023-07-28T09:20:38;22.13;;;12.55;;
26319;SDS011;14024;52.226;5.200;2023-07-28T09:23:06;21.63;;;11.15;;
26319;SDS011;14024;52.226;5.200;2023-07-28T09:25:33;18.08;;;11.15;;
26319;SDS011;14024;52.226;5.200;2023-07-28T09:27:59;18.95;;;10.68;;
26319;SDS011;14024;52.226;5.200;2023-07-28T09:30:25;17.27;;;10.13;;
26319;SDS011;14024;52.226;5.200;2023-07-28T09:32:52;14.35;;;9.68;;
26319;SDS011;14024;52.226;5.200;2023-07-28T09:35:18;16.92;;;10.77;;
26319;SDS011;14024;52.226;5.200;2023-07-28T09:37:45;16.50;;;9.32;;
26319;SDS011;14024;52.226;5.200;2023-07-28T09:40:13;19.83;;;9.88;;
26319;SDS011;14024;52.226;5.200;2023-07-28T09:42:39;18.27;;;10.50;;
26319;SDS011;14024;52.226;5.200;2023-07-28T09:45:06;15.65;;;10.27;;
26319;SDS011;14024;52.226;5.200;2023-07-28T09:47:33;19.52;;;10.80;;
26319;SDS011;14024;52.226;5.200;2023-07-28T09:50:03;19.00;;;10.43;;
26319;SDS011;14024;52.226;5.200;2023-07-28T09:52:42;14.75;;;10.90;;
26319;SDS011;14024;52.226;5.200;2023-07-28T09:55:09;17.70;;;10.50;;
26319;SDS011;14024;52.226;5.200;2023-07-28T09:57:38;15.70;;;10.80;;
26319;SDS011;14024;52.226;5.200;2023-07-28T10:00:06;16.77;;;9.25;;
26319;SDS011;14024;52.226;5.200;2023-07-28T10:02:33;16.45;;;9.43;;
26319;SDS011;14024;52.226;5.200;2023-07-28T10:05:01;19.55;;;9.10;;
26319;SDS011;14024;52.226;5.200;2023-07-28T10:07:27;12.73;;;8.95;;
26319;SDS011;14024;52.226;5.200;2023-07-28T10:09:53;12.65;;;8.10;;
26319;SDS011;14024;52.226;5.200;2023-07-28T10:12:26;8.18;;;6.18;;
26319;SDS011;14024;52.226;5.200;2023-07-28T10:15:02;10.15;;;6.40;;
26319;SDS011;14024;52.226;5.200;2023-07-28T10:17:32;13.73;;;6.65;;
26319;SDS011;14024;52.226;5.200;2023-07-28T10:19:59;9.23;;;5.72;;
26319;SDS011;14024;52.226;5.200;2023-07-28T10:22:26;15.85;;;5.72;;
26319;SDS011;14024;52.226;5.200;2023-07-28T10:24:56;7.40;;;5.20;;
26319;SDS011;14024;52.226;5.200;2023-07-28T10:27:32;13.02;;;5.15;;
26319;SDS011;14024;52.226;5.200;2023-07-28T10:30:00;8.82;;;4.70;;
26319;SDS011;14024;52.226;5.200;2023-07-28T10:32:48;9.05;;;4.40;;
26319;SDS011;14024;52.226;5.200;2023-07-28T10:37:46;12.50;;;5.00;;
26319;SDS011;14024;52.226;5.200;2023-07-28T10:42:49;10.52;;;5.93;;
26319;SDS011;14024;52.226;5.200;2023-07-28T10:45:15;6.95;;;5.72;;
26319;SDS011;14024;52.226;5.200;2023-07-28T10:47:41;8.75;;;5.95;;
26319;SDS011;14024;52.226;5.200;2023-07-28T10:50:10;12.88;;;6.28;;
26319;SDS011;14024;52.226;5.200;2023-07-28T10:52:40;15.48;;;7.28;;
26319;SDS011;14024;52.226;5.200;2023-07-28T10:55:16;13.70;;;6.35;;
26319;SDS011;14024;52.226;5.200;2023-07-28T10:57:42;10.93;;;6.75;;
26319;SDS011;14024;52.226;5.200;2023-07-28T11:00:13;8.75;;;6.63;;
26319;SDS011;14024;52.226;5.200;2023-07-28T11:02:46;16.08;;;7.40;;
26319;SDS011;14024;52.226;5.200;2023-07-28T11:05:13;16.98;;;8.10;;
26319;SDS011;14024;52.226;5.200;2023-07-28T11:07:40;11.80;;;7.00;;
26319;SDS011;14024;52.226;5.200;2023-07-28T11:10:07;11.98;;;7.28;;
26319;SDS011;14024;52.226;5.200;2023-07-28T11:12:33;12.25;;;7.78;;
26319;SDS011;14024;52.226;5.200;2023-07-28T11:15:00;12.20;;;8.05;;
26319;SDS011;14024;52.226;5.200;2023-07-28T11:17:26;13.45;;;8.43;;
26319;SDS011;14024;52.226;5.200;2023-07-28T11:19:52;13.77;;;9.32;;
26319;SDS011;14024;52.226;5.200;2023-07-28T11:22:18;17.52;;;10.13;;
26319;SDS011;14024;52.226;5.200;2023-07-28T11:24:44;12.88;;;9.77;;
26319;SDS011;14024;52.226;5.200;2023-07-28T11:27:10;14.82;;;9.68;;
26319;SDS011;14024;52.226;5.200;2023-07-28T11:29:36;20.70;;;11.23;;
26319;SDS011;14024;52.226;5.200;2023-07-28T11:32:03;12.82;;;8.70;;
26319;SDS011;14024;52.226;5.200;2023-07-28T11:34:33;15.75;;;8.63;;
26319;SDS011;14024;52.226;5.200;2023-07-28T11:37:00;16.30;;;9.25;;
26319;SDS011;14024;52.226;5.200;2023-07-28T11:39:26;12.65;;;8.07;;
26319;SDS011;14024;52.226;5.200;2023-07-28T11:41:52;18.17;;;8.85;;
26319;SDS011;14024;52.226;5.200;2023-07-28T11:44:19;18.40;;;9.60;;
26319;SDS011;14024;52.226;5.200;2023-07-28T11:46:45;15.50;;;9.50;;
26319;SDS011;14024;52.226;5.200;2023-07-28T11:49:16;16.35;;;9.15;;
26319;SDS011;14024;52.226;5.200;2023-07-28T11:51:44;18.95;;;9.50;;
26319;SDS011;14024;52.226;5.200;2023-07-28T11:54:11;19.25;;;9.75;;
26319;SDS011;14024;52.226;5.200;2023-07-28T11:56:43;12.10;;;8.77;;
26319;SDS011;14024;52.226;5.200;2023-07-28T11:59:10;13.07;;;7.68;;
26319;SDS011;14024;52.226;5.200;2023-07-28T12:01:59;10.02;;;6.68;;
26319;SDS011;14024;52.226;5.200;2023-07-28T12:04:26;13.02;;;7.75;;
26319;SDS011;14024;52.226;5.200;2023-07-28T12:07:03;15.98;;;7.53;;
26319;SDS011;14024;52.226;5.200;2023-07-28T12:09:31;11.13;;;7.20;;
26319;SDS011;14024;52.226;5.200;2023-07-28T12:11:57;9.90;;;6.53;;
26319;SDS011;14024;52.226;5.200;2023-07-28T12:14:33;12.57;;;6.28;;
26319;SDS011;14024;52.226;5.200;2023-07-28T12:16:59;12.18;;;6.90;;
26319;SDS011;14024;52.226;5.200;2023-07-28T12:19:26;10.52;;;6.72;;
26319;SDS011;14024;52.226;5.200;2023-07-28T12:21:52;9.77;;;6.03;;
26319;SDS011;14024;52.226;5.200;2023-07-28T12:24:18;12.95;;;5.75;;
26319;SDS011;14024;52.226;5.200;2023-07-28T12:26:48;7.63;;;4.85;;
26319;SDS011;14024;52.226;5.200;2023-07-28T12:29:14;9.80;;;5.95;;
26319;SDS011;14024;52.226;5.200;2023-07-28T12:31:41;14.75;;;6.07;;
26319;SDS011;14024;52.226;5.200;2023-07-28T12:34:07;11.40;;;6.05;;
26319;SDS011;14024;52.226;5.200;2023-07-28T12:36:33;8.75;;;4.75;;
26319;SDS011;14024;52.226;5.200;2023-07-28T12:38:59;10.40;;;5.32;;
26319;SDS011;14024;52.226;5.200;2023-07-28T12:41:25;9.80;;;5.10;;
26319;SDS011;14024;52.226;5.200;2023-07-28T12:43:51;11.48;;;6.07;;
26319;SDS011;14024;52.226;5.200;2023-07-28T12:46:17;9.52;;;5.72;;
26319;SDS011;14024;52.226;5.200;2023-07-28T12:48:43;15.70;;;7.30;;
26319;SDS011;14024;52.226;5.200;2023-07-28T12:51:09;11.05;;;7.13;;
26319;SDS011;14024;52.226;5.200;2023-07-28T12:53:35;14.65;;;7.47;;
26319;SDS011;14024;52.226;5.200;2023-07-28T12:56:01;14.73;;;7.55;;
26319;SDS011;14024;52.226;5.200;2023-07-28T12:58:27;13.23;;;7.13;;
26319;SDS011;14024;52.226;5.200;2023-07-28T13:00:54;15.13;;;6.78;;
26319;SDS011;14024;52.226;5.200;2023-07-28T13:03:21;12.18;;;6.70;;
26319;SDS011;14024;52.226;5.200;2023-07-28T13:05:47;13.35;;;6.88;;
26319;SDS011;14024;52.226;5.200;2023-07-28T13:08:13;12.88;;;6.32;;
26319;SDS011;14024;52.226;5.200;2023-07-28T13:10:39;15.27;;;7.13;;
26319;SDS011;14024;52.226;5.200;2023-07-28T13:13:05;11.65;;;6.60;;
26319;SDS011;14024;52.226;5.200;2023-07-28T13:15:31;10.90;;;6.70;;
26319;SDS011;14024;52.226;5.200;2023-07-28T13:17:57;13.18;;;6.38;;
26319;SDS011;14024;52.226;5.200;2023-07-28T13:20:23;11.30;;;6.38;;
26319;SDS011;14024;52.226;5.200;2023-07-28T13:22:49;14.75;;;7.60;;
26319;SDS011;14024;52.226;5.200;2023-07-28T13:25:15;17.88;;;7.47;;
26319;SDS011;14024;52.226;5.200;2023-07-28T13:27:41;11.65;;;6.85;;
26319;SDS011;14024;52.226;5.200;2023-07-28T13:30:07;15.65;;;6.85;;
26319;SDS011;14024;52.226;5.200;2023-07-28T13:32:33;14.35;;;6.78;;
26319;SDS011;14024;52.226;5.200;2023-07-28T13:34:59;15.85;;;7.47;;
26319;SDS011;14024;52.226;5.200;2023-07-28T13:37:25;14.05;;;6.28;;
26319;SDS011;14024;52.226;5.200;2023-07-28T13:39:51;15.50;;;6.85;;
26319;SDS011;14024;52.226;5.200;2023-07-28T13:42:17;11.80;;;6.40;;
26319;SDS011;14024;52.226;5.200;2023-07-28T13:44:43;17.00;;;6.78;;
26319;SDS011;14024;52.226;5.200;2023-07-28T13:47:09;16.55;;;6.78;;
26319;SDS011;14024;52.226;5.200;2023-07-28T13:49:35;9.27;;;5.97;;
26319;SDS011;14024;52.226;5.200;2023-07-28T13:52:02;15.73;;;6.13;;
26319;SDS011;14024;52.226;5.200;2023-07-28T13:54:28;17.30;;;6.30;;
26319;SDS011;14024;52.226;5.200;2023-07-28T13:56:55;11.50;;;6.50;;
26319;SDS011;14024;52.226;5.200;2023-07-28T13:59:21;7.43;;;5.47;;
26319;SDS011;14024;52.226;5.200;2023-07-28T14:01:48;13.90;;;6.55;;
26319;SDS011;14024;52.226;5.200;2023-07-28T14:04:15;12.80;;;6.00;;
26319;SDS011;14024;52.226;5.200;2023-07-28T14:06:41;11.38;;;6.03;;
26319;SDS011;14024;52.226;5.200;2023-07-28T14:09:07;9.98;;;6.00;;
26319;SDS011;14024;52.226;5.200;2023-07-28T14:11:34;11.35;;;6.25;;
26319;SDS011;14024;52.226;5.200;2023-07-28T14:14:00;10.48;;;6.38;;
26319;SDS011;14024;52.226;5.200;2023-07-28T14:16:26;11.35;;;6.63;;
26319;SDS011;14024;52.226;5.200;2023-07-28T14:18:52;11.13;;;6.88;;
26319;SDS011;14024;52.226;5.200;2023-07-28T14:21:18;8.57;;;6.45;;
26319;SDS011;14024;52.226;5.200;2023-07-28T14:23:44;12.02;;;7.05;;
26319;SDS011;14024;52.226;5.200;2023-07-28T14:26:10;12.20;;;7.35;;
26319;SDS011;14024;52.226;5.200;2023-07-28T14:28:36;11.85;;;6.65;;
26319;SDS011;14024;52.226;5.200;2023-07-28T14:31:02;11.30;;;6.95;;
26319;SDS011;14024;52.226;5.200;2023-07-28T14:33:28;9.00;;;5.90;;